Time;durP1;ratioP1;P1;durP2;ratioP2;P2;SDS_P1;SDS_P2;PMS_P1;PMS_P2;Temp;Humidity;BMP_temperature;BMP_pressure;BME280_temperature;BME280_humidity;BME280_pressure;Samples;Min_cycle;Max_cycle;Signal;HPM_P1;HPM_P2
2021/01/02 00:02:18;;;;;;;26.33;16.23;;;;;;;-1.12;83.05;96092.09;1702882;83;21149;-80
2021/01/02 00:08:18;;;;;;;37.78;20.65;;;;;;;-1.00;82.97;96101.79;1731210;81;21130;-79
2021/01/02 00:11:29;;;;;;;10.43;8.03;;;;;;;-0.99;82.69;96105.95;1728943;81;21105;-79
2021/01/02 00:14:23;;;;;;;13.45;7.78;;;;;;;-0.98;82.80;96095.67;1733625;81;21141;-79
2021/01/02 00:17:03;;;;;;;14.95;10.75;;;;;;;-0.97;82.91;96096.02;1738905;81;21251;-79
2021/01/02 00:19:58;;;;;;;13.85;9.58;;;;;;;-0.93;83.04;96088.93;1737215;81;21110;-79
2021/01/02 00:22:40;;;;;;;8.48;6.15;;;;;;;-0.89;83.25;96101.78;1741364;81;21129;-79
2021/01/02 00:25:15;;;;;;;12.93;9.00;;;;;;;-0.87;82.94;96096.09;1734783;81;21110;-79
2021/01/02 00:28:10;;;;;;;7.53;5.58;;;;;;;-0.87;83.11;96099.92;1740622;81;21133;-79
2021/01/02 00:31:06;;;;;;;11.45;7.35;;;;;;;-0.85;83.05;96106.99;1696057;83;21122;-79
2021/01/02 00:33:53;;;;;;;9.68;6.55;;;;;;;-0.83;83.12;96108.14;1738782;81;21257;-78
2021/01/02 00:36:37;;;;;;;27.10;16.02;;;;;;;-0.87;82.82;96092.73;1741095;82;21117;-79
2021/01/02 00:39:03;;;;;;;26.52;16.05;;;;;;;-0.92;82.89;96096.46;1716815;81;21149;-79
2021/01/02 00:41:29;;;;;;;18.85;9.60;;;;;;;-0.93;82.90;96102.49;1749541;81;21439;-79
2021/01/02 00:43:55;;;;;;;17.87;11.22;;;;;;;-0.93;83.25;96099.13;1700981;81;21158;-80
2021/01/02 00:46:21;;;;;;;5.45;3.87;;;;;;;-0.85;84.19;96108.73;1736551;81;21134;-79
2021/01/02 00:48:49;;;;;;;4.47;3.75;;;;;;;-0.62;85.83;96111.14;1731814;81;21113;-79
2021/01/02 00:51:15;;;;;;;3.83;3.52;;;;;;;-0.20;86.25;96111.70;1740937;81;21090;-79
2021/01/02 00:53:47;;;;;;;3.45;2.77;;;;;;;0.07;85.84;96113.80;1748761;81;21121;-79
2021/01/02 00:56:28;;;;;;;2.83;2.62;;;;;;;0.28;85.61;96112.05;1744765;81;21114;-79
2021/01/02 00:59:19;;;;;;;4.42;3.50;;;;;;;0.46;85.47;96107.98;1736860;82;21339;-79
2021/01/02 01:01:50;;;;;;;3.27;2.98;;;;;;;0.65;85.41;96109.02;1735931;81;21122;-79
2021/01/02 01:04:33;;;;;;;3.65;3.35;;;;;;;0.91;85.48;96107.67;1733978;81;21333;-79
2021/01/02 01:06:59;;;;;;;3.20;2.90;;;;;;;1.10;85.12;96115.88;1741306;81;21116;-79
2021/01/02 01:09:25;;;;;;;3.33;3.02;;;;;;;1.18;84.83;96118.14;1739169;81;21145;-79
2021/01/02 01:11:54;;;;;;;3.45;2.92;;;;;;;1.26;84.51;96116.20;1658334;81;21153;-79
2021/01/02 01:14:24;;;;;;;2.42;2.22;;;;;;;1.44;84.38;96109.97;1744796;81;21801;-79
2021/01/02 01:16:53;;;;;;;3.90;3.00;;;;;;;1.55;84.15;96118.02;1717415;81;21156;-79
2021/01/02 01:19:20;;;;;;;4.50;3.55;;;;;;;1.66;84.04;96121.28;1746753;81;21334;-79
2021/01/02 01:21:49;;;;;;;4.17;3.22;;;;;;;1.77;83.75;96122.42;1741532;81;21124;-81
2021/01/02 01:24:27;;;;;;;28.52;15.72;;;;;;;1.93;83.83;96118.52;1705580;81;21145;-81
2021/01/02 01:27:21;;;;;;;46.85;30.27;;;;;;;2.02;83.40;96118.53;1741689;81;21129;-81
2021/01/02 01:29:55;;;;;;;51.73;29.05;;;;;;;1.89;81.71;96123.11;1740662;81;21148;-82
2021/01/02 01:32:23;;;;;;;40.28;25.12;;;;;;;1.56;81.01;96124.28;1703092;81;21145;-81
2021/01/02 01:34:59;;;;;;;41.48;25.52;;;;;;;1.34;81.30;96124.52;1736947;81;21977;-82
2021/01/02 01:37:30;;;;;;;47.88;28.70;;;;;;;1.14;81.30;96117.27;1735864;81;21136;-81
2021/01/02 01:39:57;;;;;;;54.83;32.78;;;;;;;1.08;81.90;96122.41;1738236;81;21399;-81
2021/01/02 01:42:43;;;;;;;50.45;31.93;;;;;;;1.08;81.99;96126.25;1734898;81;21223;-82
2021/01/02 01:45:38;;;;;;;52.25;34.00;;;;;;;1.04;82.12;96127.45;1733435;81;21081;-81
2021/01/02 01:48:09;;;;;;;56.83;34.80;;;;;;;0.95;82.17;96131.23;1705975;83;21319;-81
2021/01/02 01:51:10;;;;;;;56.20;34.13;;;;;;;0.85;82.48;96124.35;1700660;82;21117;-80
2021/01/02 01:54:00;;;;;;;49.80;29.20;;;;;;;0.80;82.54;96126.92;1669482;84;21152;-81
2021/01/02 01:56:31;;;;;;;58.10;37.25;;;;;;;0.79;82.87;96124.03;1699358;83;21163;-81
2021/01/02 01:59:22;;;;;;;61.45;36.58;;;;;;;0.79;83.15;96132.52;1695708;83;21987;-80
2021/01/02 02:05:07;;;;;;;58.02;34.10;;;;;;;0.79;83.40;96120.20;1659942;85;21150;-80
2021/01/02 02:08:10;;;;;;;48.42;28.45;;;;;;;0.82;83.43;96121.24;1659562;85;21105;-80
2021/01/02 02:10:48;;;;;;;56.02;33.58;;;;;;;0.80;82.79;96127.73;1656022;85;21262;-80
2021/01/02 02:13:32;;;;;;;54.85;33.13;;;;;;;0.78;83.09;96134.73;1658417;85;21118;-80
2021/01/02 02:15:59;;;;;;;55.00;34.08;;;;;;;0.75;83.18;96136.74;1625039;85;21129;-80
2021/01/02 02:18:28;;;;;;;54.25;31.50;;;;;;;0.70;83.39;96129.45;1655527;85;21152;-80
2021/01/02 02:20:58;;;;;;;50.85;30.75;;;;;;;0.68;83.51;96126.69;1653248;85;21149;-79
2021/01/02 02:23:45;;;;;;;43.52;29.80;;;;;;;0.69;83.61;96123.20;1627477;85;21266;-79
2021/01/02 02:26:19;;;;;;;49.38;28.87;;;;;;;0.72;83.67;96122.47;1655454;85;21211;-80
2021/01/02 02:29:04;;;;;;;53.60;32.40;;;;;;;0.74;83.77;96130.81;1651328;85;21161;-80
2021/01/02 02:31:30;;;;;;;55.63;33.53;;;;;;;0.75;83.58;96136.27;1657745;85;21160;-80
2021/01/02 02:33:58;;;;;;;49.10;33.25;;;;;;;0.76;83.74;96125.58;1630400;85;21141;-79
2021/01/02 02:36:25;;;;;;;56.48;32.17;;;;;;;0.79;83.90;96136.82;1656835;85;21133;-80
2021/01/02 02:38:53;;;;;;;53.23;30.92;;;;;;;0.84;83.83;96129.13;1657237;85;21260;-80
2021/01/02 02:41:25;;;;;;;50.73;31.65;;;;;;;0.88;83.68;96122.81;1658913;85;21169;-80
2021/01/02 02:43:54;;;;;;;54.70;34.10;;;;;;;0.88;83.71;96134.32;1657912;85;21154;-80
2021/01/02 02:46:22;;;;;;;53.00;32.20;;;;;;;0.89;83.66;96135.94;1658874;85;21251;-79
2021/01/02 02:48:52;;;;;;;48.92;32.10;;;;;;;0.89;83.79;96119.78;1658439;85;21169;-80
2021/01/02 02:51:18;;;;;;;51.02;30.00;;;;;;;0.86;83.62;96126.44;1649065;86;21129;-80
2021/01/02 02:53:47;;;;;;;48.85;29.15;;;;;;;0.87;83.74;96130.61;1657551;85;21427;-79
2021/01/02 02:56:13;;;;;;;46.33;29.82;;;;;;;0.90;83.65;96126.52;1654485;85;21477;-79
2021/01/02 02:58:39;;;;;;;47.65;28.92;;;;;;;0.89;83.67;96127.45;1655982;85;21138;-79
2021/01/02 03:01:05;;;;;;;38.65;24.02;;;;;;;0.88;83.79;96117.69;1660968;85;21144;-80
2021/01/02 03:03:31;;;;;;;44.90;29.02;;;;;;;0.93;84.28;96128.81;1655588;85;21136;-80
2021/01/02 03:05:57;;;;;;;48.73;29.45;;;;;;;0.93;84.05;96134.40;1633873;85;21148;-80
2021/01/02 03:08:23;;;;;;;44.05;27.50;;;;;;;0.93;83.96;96122.42;1654089;85;21162;-80
2021/01/02 03:10:49;;;;;;;44.23;26.62;;;;;;;0.97;83.83;96120.41;1657121;85;21296;-80
2021/01/02 03:13:15;;;;;;;32.50;22.98;;;;;;;0.99;83.75;96121.11;1658534;85;21352;-80
2021/01/02 03:15:42;;;;;;;45.43;28.15;;;;;;;1.01;84.05;96123.06;1660354;85;21276;-79
2021/01/02 03:18:09;;;;;;;46.83;29.95;;;;;;;0.99;83.89;96128.31;1636421;85;22006;-80
2021/01/02 03:20:35;;;;;;;29.40;19.52;;;;;;;0.93;83.75;96120.33;1657381;85;21168;-80
2021/01/02 03:23:01;;;;;;;32.13;21.73;;;;;;;0.96;84.23;96116.23;1656736;85;21367;-80
2021/01/02 03:25:27;;;;;;;32.78;18.85;;;;;;;1.08;84.54;96119.84;1660414;85;21289;-80
2021/01/02 03:27:54;;;;;;;42.45;27.22;;;;;;;1.20;84.63;96127.77;1663633;85;21165;-80
2021/01/02 03:30:21;;;;;;;42.25;26.42;;;;;;;1.25;84.16;96132.50;1652512;85;21162;-80
2021/01/02 03:32:47;;;;;;;45.23;27.65;;;;;;;1.25;84.03;96131.69;1651317;85;21296;-80
2021/01/02 03:35:14;;;;;;;38.08;21.20;;;;;;;1.23;83.88;96133.10;1661863;85;21397;-79
2021/01/02 03:37:43;;;;;;;31.37;19.32;;;;;;;1.24;84.09;96128.32;1658254;85;21368;-80
2021/01/02 03:40:11;;;;;;;27.80;17.23;;;;;;;1.32;84.11;96130.24;1660560;85;21164;-80
2021/01/02 03:42:44;;;;;;;26.00;16.85;;;;;;;1.39;84.21;96130.05;1658522;85;21154;-80
2021/01/02 03:45:13;;;;;;;18.62;12.85;;;;;;;1.44;84.23;96126.61;1663433;85;21136;-79
2021/01/02 03:47:39;;;;;;;13.05;8.95;;;;;;;1.49;84.40;96133.45;1659491;85;21158;-79
2021/01/02 03:50:06;;;;;;;10.18;7.28;;;;;;;1.55;84.59;96138.03;1658536;85;21158;-80
2021/01/02 03:52:38;;;;;;;10.82;6.42;;;;;;;1.64;84.65;96141.09;1652146;85;21171;-80
2021/01/02 03:55:06;;;;;;;9.80;7.40;;;;;;;1.74;84.69;96143.66;1654329;85;21259;-80
2021/01/02 03:57:32;;;;;;;11.25;7.28;;;;;;;1.83;84.24;96135.18;1655126;85;21387;-80
2021/01/02 03:59:58;;;;;;;9.35;6.37;;;;;;;1.93;84.17;96137.73;1654273;85;21132;-79
2021/01/02 04:02:27;;;;;;;7.05;5.37;;;;;;;1.98;84.07;96130.00;1652352;85;21177;-80
2021/01/02 04:04:53;;;;;;;7.67;6.00;;;;;;;2.03;83.99;96135.52;1656546;85;21136;-80
2021/01/02 04:07:19;;;;;;;6.83;5.40;;;;;;;2.05;83.94;96128.98;1656867;85;21366;-80
2021/01/02 04:09:46;;;;;;;10.70;6.37;;;;;;;2.11;83.86;96137.39;1656211;85;21148;-80
2021/01/02 04:12:12;;;;;;;7.08;6.37;;;;;;;2.13;83.70;96124.00;1662340;85;21163;-80
2021/01/02 04:14:38;;;;;;;12.45;8.53;;;;;;;2.22;83.59;96129.58;1658310;85;21168;-80
2021/01/02 04:17:04;;;;;;;18.25;11.48;;;;;;;2.31;83.37;96136.46;1656174;85;21127;-80
2021/01/02 04:19:32;;;;;;;11.75;7.10;;;;;;;2.30;83.25;96131.00;1658722;85;21180;-80
2021/01/02 04:21:59;;;;;;;9.88;7.10;;;;;;;2.30;83.17;96133.56;1660314;85;21137;-80
2021/01/02 04:24:26;;;;;;;11.12;8.88;;;;;;;2.30;83.16;96134.03;1658695;85;21135;-79
2021/01/02 04:27:00;;;;;;;6.20;4.80;;;;;;;2.26;83.20;96133.48;1656220;85;21171;-80
2021/01/02 04:29:27;;;;;;;4.87;3.80;;;;;;;2.22;83.13;96136.45;1650234;85;21141;-80
2021/01/02 04:31:55;;;;;;;6.55;4.55;;;;;;;2.20;83.04;96139.16;1657579;85;21132;-80
2021/01/02 04:34:21;;;;;;;6.97;5.03;;;;;;;2.21;83.06;96144.62;1654458;85;21275;-80
2021/01/02 04:36:48;;;;;;;6.37;4.97;;;;;;;2.24;83.06;96144.81;1657381;85;21354;-80
2021/01/02 04:39:14;;;;;;;5.55;4.97;;;;;;;2.27;83.19;96152.23;1658031;85;21281;-80
2021/01/02 04:41:41;;;;;;;5.65;4.40;;;;;;;2.28;83.10;96155.97;1654416;85;21112;-80
2021/01/02 04:44:07;;;;;;;6.53;4.87;;;;;;;2.28;83.15;96155.16;1655271;85;21247;-80
2021/01/02 04:46:36;;;;;;;5.62;5.00;;;;;;;2.22;83.17;96152.64;1656768;85;21286;-80
2021/01/02 04:49:02;;;;;;;7.50;5.03;;;;;;;2.20;83.12;96162.23;1656443;85;21140;-80
2021/01/02 04:51:28;;;;;;;6.70;4.72;;;;;;;2.17;83.01;96159.94;1659783;85;21137;-80
2021/01/02 04:54:05;;;;;;;5.33;4.40;;;;;;;2.23;83.07;96163.70;1655527;85;21156;-80
2021/01/02 04:56:36;;;;;;;5.80;4.95;;;;;;;2.23;83.00;96162.42;1652699;85;21275;-80
2021/01/02 04:59:04;;;;;;;6.25;4.75;;;;;;;2.21;83.07;96163.03;1655519;85;21259;-80
2021/01/02 05:01:30;;;;;;;5.90;4.75;;;;;;;2.20;83.07;96169.92;1654045;85;21366;-80
2021/01/02 05:03:57;;;;;;;7.03;4.50;;;;;;;2.16;82.96;96169.05;1639703;86;21258;-80
2021/01/02 05:06:23;;;;;;;5.65;4.10;;;;;;;2.10;82.95;96158.38;1657131;85;21540;-80
2021/01/02 05:08:50;;;;;;;8.43;4.50;;;;;;;2.03;82.80;96157.78;1654504;85;21152;-80
2021/01/02 05:11:18;;;;;;;5.17;4.10;;;;;;;1.97;82.88;96160.41;1659067;85;21133;-80
2021/01/02 05:13:44;;;;;;;5.53;4.42;;;;;;;1.96;83.05;96164.39;1655267;85;21290;-80
2021/01/02 05:16:23;;;;;;;5.85;4.28;;;;;;;1.95;83.12;96167.87;1653416;85;22104;-80
2021/01/02 05:19:00;;;;;;;3.87;3.50;;;;;;;1.94;83.21;96164.50;1656353;85;21105;-80
2021/01/02 05:21:27;;;;;;;5.83;4.20;;;;;;;1.91;83.14;96174.21;1659115;85;21092;-80
2021/01/02 05:24:15;;;;;;;5.20;3.98;;;;;;;1.86;83.23;96176.38;1657927;85;21141;-80
2021/01/02 05:26:54;;;;;;;8.03;3.95;;;;;;;1.85;83.23;96169.63;1660987;85;21132;-80
2021/01/02 05:29:27;;;;;;;6.60;4.75;;;;;;;1.82;83.21;96175.84;1650940;85;21375;-80
2021/01/02 05:31:57;;;;;;;6.67;4.80;;;;;;;1.85;83.54;96174.75;1651977;85;21196;-80
2021/01/02 05:34:26;;;;;;;6.72;4.97;;;;;;;1.95;83.65;96191.77;1654304;85;21195;-80
2021/01/02 05:37:04;;;;;;;5.75;4.15;;;;;;;2.00;83.60;96194.73;1653796;85;21175;-80
2021/01/02 05:39:43;;;;;;;4.53;4.12;;;;;;;1.99;83.56;96191.84;1654885;85;21161;-80
2021/01/02 05:42:09;;;;;;;5.72;4.22;;;;;;;1.98;83.48;96198.37;1657303;85;21150;-80
2021/01/02 05:44:39;;;;;;;4.72;3.67;;;;;;;1.98;83.45;96194.06;1653824;85;21477;-80
2021/01/02 05:47:06;;;;;;;5.17;3.80;;;;;;;2.00;83.25;96193.45;1657929;85;21156;-79
2021/01/02 05:49:38;;;;;;;5.30;4.05;;;;;;;2.01;83.23;96191.70;1656228;85;21155;-80
2021/01/02 05:52:07;;;;;;;6.62;3.60;;;;;;;1.99;83.21;96193.59;1658032;85;21120;-82
2021/01/02 05:54:35;;;;;;;5.08;4.17;;;;;;;1.96;83.19;96193.86;1658952;85;21132;-82
2021/01/02 05:57:04;;;;;;;5.65;4.92;;;;;;;1.92;83.32;96196.33;1637057;85;21152;-82
2021/01/02 05:59:39;;;;;;;6.20;4.65;;;;;;;1.91;83.48;96191.67;1657137;85;21123;-82
2021/01/02 06:02:25;;;;;;;5.95;4.37;;;;;;;1.95;83.50;96198.18;1657308;85;21136;-81
2021/01/02 06:05:07;;;;;;;6.87;4.97;;;;;;;2.02;83.46;96203.57;1657113;85;21827;-82
2021/01/02 06:07:36;;;;;;;6.70;4.53;;;;;;;2.09;83.49;96200.80;1652191;85;21100;-82
2021/01/02 06:10:07;;;;;;;8.95;5.10;;;;;;;2.10;83.46;96203.70;1648828;85;21462;-83
2021/01/02 06:12:35;;;;;;;7.20;4.70;;;;;;;2.14;83.53;96202.51;1657534;85;21132;-83
2021/01/02 06:15:09;;;;;;;7.75;6.25;;;;;;;2.20;83.58;96198.12;1655971;85;21160;-82
2021/01/02 06:17:39;;;;;;;5.85;4.35;;;;;;;2.25;83.38;96195.14;1666143;85;21268;-82
2021/01/02 06:20:14;;;;;;;6.75;5.05;;;;;;;2.28;83.20;96196.18;1663025;85;21179;-82
2021/01/02 06:22:41;;;;;;;5.17;4.42;;;;;;;2.29;83.04;96201.17;1689882;85;21144;-82
2021/01/02 06:25:10;;;;;;;6.60;4.35;;;;;;;2.34;82.98;96202.84;1668842;85;21283;-82
2021/01/02 06:27:44;;;;;;;7.67;4.80;;;;;;;2.39;82.99;96201.16;1655539;85;21164;-82
2021/01/02 06:30:16;;;;;;;6.97;3.83;;;;;;;2.35;82.81;96205.75;1658799;85;21147;-81
2021/01/02 06:32:46;;;;;;;;;;;;;;;2.29;82.80;96202.45;1656685;85;21135;-82
2021/01/02 06:35:17;;;;;;;7.10;4.75;;;;;;;2.23;82.83;96205.53;1654609;85;20148;-81
2021/01/02 06:37:58;;;;;;;5.60;4.25;;;;;;;2.23;82.83;96204.25;1667890;85;21357;-81
2021/01/02 06:40:39;;;;;;;7.97;4.42;;;;;;;2.35;82.82;96210.06;1656247;85;21112;-81
2021/01/02 06:43:11;;;;;;;5.90;4.53;;;;;;;2.40;82.76;96202.30;1647315;85;21410;-81
2021/01/02 06:45:43;;;;;;;10.23;5.70;;;;;;;2.49;82.73;96209.66;1676705;85;21167;-82
2021/01/02 06:48:24;;;;;;;6.62;5.22;;;;;;;2.53;82.77;96206.34;1649571;85;21393;-81
2021/01/02 06:50:58;;;;;;;4.27;3.87;;;;;;;2.54;82.69;96204.11;1678480;85;21131;-81
2021/01/02 06:53:34;;;;;;;7.30;4.92;;;;;;;2.57;82.50;96213.63;1643907;85;21131;-81
2021/01/02 06:56:04;;;;;;;6.83;4.37;;;;;;;2.60;82.45;96210.81;1675925;85;21397;-82
2021/01/02 06:58:46;;;;;;;4.87;3.87;;;;;;;2.67;82.37;96205.93;1650316;85;21243;-81
2021/01/02 07:01:24;;;;;;;6.33;4.30;;;;;;;2.66;82.35;96205.13;1661692;85;21120;-81
2021/01/02 07:03:50;;;;;;;8.45;4.92;;;;;;;2.67;82.30;96208.50;1649646;85;21359;-81
2021/01/02 07:06:24;;;;;;;6.17;4.50;;;;;;;2.63;82.28;96205.40;1661223;85;21523;-81
2021/01/02 07:09:21;;;;;;;6.70;4.50;;;;;;;2.68;82.28;96208.36;1675883;85;21164;-81
2021/01/02 07:11:49;;;;;;;8.33;5.20;;;;;;;2.72;82.24;96210.17;1651468;85;21285;-82
2021/01/02 07:14:22;;;;;;;7.67;5.90;;;;;;;2.77;82.14;96217.00;1687495;85;21138;-81
2021/01/02 07:17:10;;;;;;;5.37;4.37;;;;;;;2.80;82.09;96220.57;1663543;85;21246;-81
2021/01/02 07:19:42;;;;;;;9.23;5.62;;;;;;;2.85;81.93;96217.58;1669025;85;21131;-81
2021/01/02 07:22:19;;;;;;;8.48;6.45;;;;;;;2.85;81.94;96231.70;1665880;85;21138;-81
2021/01/02 07:24:54;;;;;;;7.03;5.35;;;;;;;2.86;81.74;96231.55;1657707;85;21260;-81
2021/01/02 07:27:28;;;;;;;7.37;5.90;;;;;;;2.90;81.91;96227.76;1659979;85;21150;-81
2021/01/02 07:29:58;;;;;;;9.88;6.70;;;;;;;2.93;81.90;96241.63;1652216;85;21146;-81
2021/01/02 07:32:28;;;;;;;9.78;7.25;;;;;;;2.93;81.70;96244.66;1661189;85;21358;-82
2021/01/02 07:35:09;;;;;;;10.05;6.75;;;;;;;2.94;81.73;96239.87;1664150;85;21281;-82
2021/01/02 07:37:39;;;;;;;11.40;7.70;;;;;;;2.90;81.84;96238.50;1631467;85;21167;-81
2021/01/02 07:40:08;;;;;;;10.93;7.53;;;;;;;2.84;81.77;96245.00;1653598;85;21132;-83
2021/01/02 07:42:36;;;;;;;10.03;6.75;;;;;;;2.83;81.85;96245.14;1679074;85;21270;-81
2021/01/02 07:45:11;;;;;;;11.12;7.10;;;;;;;2.82;81.89;96247.38;1655111;85;21147;-81
2021/01/02 07:47:48;;;;;;;10.43;8.18;;;;;;;2.83;81.77;96257.50;1632164;85;21158;-81
2021/01/02 07:50:20;;;;;;;10.45;7.60;;;;;;;2.80;81.73;96255.69;1678912;85;21096;-81
2021/01/02 07:52:53;;;;;;;11.38;8.05;;;;;;;2.82;81.83;96258.92;1656228;85;21122;-81
2021/01/02 07:58:26;;;;;;;7.65;5.33;;;;;;;2.80;81.78;96259.53;1722262;82;21227;-81
2021/01/02 08:00:52;;;;;;;6.95;4.75;;;;;;;2.77;81.88;96252.92;1721216;82;21393;-81
2021/01/02 08:03:18;;;;;;;7.28;5.72;;;;;;;2.74;81.96;96252.36;1728183;82;21099;-81
2021/01/02 08:05:45;;;;;;;5.87;4.22;;;;;;;2.74;82.09;96260.87;1724114;82;21146;-81
2021/01/02 08:08:11;;;;;;;6.08;4.42;;;;;;;2.75;82.14;96261.67;1727543;82;21076;-81
2021/01/02 08:10:38;;;;;;;5.87;4.17;;;;;;;2.80;82.20;96268.52;1667220;84;21130;-80
2021/01/02 08:13:04;;;;;;;7.17;4.78;;;;;;;2.83;82.10;96269.52;1670969;84;21125;-84
2021/01/02 08:15:35;;;;;;;8.45;5.97;;;;;;;2.84;82.21;96274.52;1688643;84;21111;-82
2021/01/02 08:18:05;;;;;;;15.08;8.10;;;;;;;2.86;82.32;96273.90;1688251;83;21345;-81
2021/01/02 08:20:31;;;;;;;10.32;7.17;;;;;;;2.90;82.36;96272.67;1691491;84;21241;-81
2021/01/02 08:22:57;;;;;;;12.90;8.85;;;;;;;2.90;82.25;96270.11;1684889;84;21191;-81
2021/01/02 08:25:23;;;;;;;15.63;11.25;;;;;;;2.87;82.16;96269.10;1685440;84;21308;-82
2021/01/02 08:27:49;;;;;;;14.98;12.15;;;;;;;2.89;82.07;96280.52;1686601;84;21451;-82
2021/01/02 08:30:17;;;;;;;12.75;9.20;;;;;;;2.93;81.93;96283.97;1683543;84;21273;-82
2021/01/02 08:32:54;;;;;;;11.00;8.53;;;;;;;2.96;81.91;96277.75;1688557;84;21618;-82
2021/01/02 08:35:23;;;;;;;11.48;7.85;;;;;;;2.94;81.79;96273.23;1686267;84;21131;-81
2021/01/02 08:37:49;;;;;;;10.58;7.50;;;;;;;2.92;81.82;96264.83;1687041;84;21345;-81
2021/01/02 08:40:17;;;;;;;9.05;6.80;;;;;;;2.85;81.92;96269.72;1691399;84;21131;-81
2021/01/02 08:42:46;;;;;;;9.45;6.75;;;;;;;2.87;81.99;96286.25;1691111;84;21083;-80
2021/01/02 08:45:16;;;;;;;9.88;6.42;;;;;;;2.90;81.92;96302.66;1691077;83;21455;-81
2021/01/02 08:47:42;;;;;;;10.88;7.58;;;;;;;2.96;81.89;96305.98;1685954;84;21414;-81
2021/01/02 08:50:14;;;;;;;7.72;5.90;;;;;;;3.04;81.83;96300.96;1690638;84;21097;-81
2021/01/02 08:52:41;;;;;;;;;;;;;;;3.06;81.71;96305.95;1654325;85;21852;-81
2021/01/02 08:55:13;;;;;;;9.40;5.42;;;;;;;3.13;81.74;96309.14;1678202;84;20252;-81
2021/01/02 08:57:53;;;;;;;7.35;5.40;;;;;;;3.16;81.59;96313.19;1683680;84;21490;-81
2021/01/02 09:00:29;;;;;;;9.43;6.78;;;;;;;3.11;81.67;96311.52;1640223;86;21139;-80
2021/01/02 09:03:03;;;;;;;10.05;6.97;;;;;;;3.08;81.58;96298.45;1675162;84;21154;-81
2021/01/02 09:05:37;;;;;;;9.53;7.62;;;;;;;3.10;81.54;96304.28;1710955;82;21443;-81
2021/01/02 09:08:08;;;;;;;12.63;7.30;;;;;;;3.14;81.52;96299.20;1710508;82;21120;-81
2021/01/02 09:10:43;;;;;;;10.38;7.00;;;;;;;3.17;81.28;96294.27;1709205;82;21149;-80
2021/01/02 09:13:20;;;;;;;11.28;8.50;;;;;;;3.24;81.18;96297.41;1680750;84;21369;-80
2021/01/02 09:16:01;;;;;;;10.75;6.10;;;;;;;3.29;81.21;96298.30;1667471;84;21161;-80
2021/01/02 09:18:33;;;;;;;5.90;4.70;;;;;;;3.35;81.05;96304.63;1667606;84;21267;-80
2021/01/02 09:21:12;;;;;;;5.67;4.15;;;;;;;3.42;80.83;96299.29;1676475;84;21139;-80
2021/01/02 09:23:40;;;;;;;5.72;3.75;;;;;;;3.52;80.71;96300.05;1643272;84;21262;-81
2021/01/02 09:26:31;;;;;;;3.98;3.67;;;;;;;3.58;80.11;96293.90;1670925;84;21191;-80
2021/01/02 09:28:59;;;;;;;10.85;6.70;;;;;;;3.74;80.23;96291.18;1670232;84;21325;-80
2021/01/02 09:31:26;;;;;;;35.00;21.02;;;;;;;3.87;80.19;96289.91;1666336;84;21175;-80
2021/01/02 09:33:52;;;;;;;15.00;9.63;;;;;;;3.97;80.15;96291.16;1670599;84;21171;-80
2021/01/02 09:36:19;;;;;;;12.10;7.25;;;;;;;4.04;79.76;96287.53;1670731;84;21149;-81
2021/01/02 09:38:46;;;;;;;21.62;14.03;;;;;;;4.10;79.92;96292.12;1670864;84;21147;-81
2021/01/02 09:41:16;;;;;;;9.75;6.25;;;;;;;4.13;79.00;96287.48;1671226;85;21155;-81
2021/01/02 09:43:42;;;;;;;7.47;5.92;;;;;;;4.27;78.83;96290.53;1671481;84;21197;-81
2021/01/02 09:46:16;;;;;;;13.08;8.90;;;;;;;4.42;78.13;96278.80;1670106;84;21260;-81
2021/01/02 09:48:37;;;;;;;15.68;9.98;;;;;;;4.55;77.55;96288.70;1669666;84;21527;-81
2021/01/02 09:51:04;;;;;;;13.18;8.90;;;;;;;4.61;76.58;96284.27;1671087;84;21131;-81
2021/01/02 09:53:30;;;;;;;9.28;5.60;;;;;;;4.64;78.81;96300.70;1670811;84;21199;-81
2021/01/02 09:55:56;;;;;;;12.33;8.43;;;;;;;4.63;79.35;96302.95;1670516;84;21119;-82
2021/01/02 09:58:22;;;;;;;19.82;12.00;;;;;;;4.65;78.95;96310.84;1684514;84;22069;-81
2021/01/02 10:00:48;;;;;;;15.40;9.50;;;;;;;4.71;78.34;96302.53;1686770;84;21276;-82
2021/01/02 10:03:15;;;;;;;9.83;5.85;;;;;;;4.77;78.89;96298.09;1693515;84;21406;-81
2021/01/02 10:05:41;;;;;;;11.57;7.80;;;;;;;4.88;79.40;96298.36;1687667;84;21253;-82
2021/01/02 10:08:07;;;;;;;11.95;7.47;;;;;;;4.91;79.51;96299.34;1688302;84;21191;-81
2021/01/02 10:10:33;;;;;;;10.45;7.05;;;;;;;4.96;79.75;96290.69;1693740;84;21099;-81
2021/01/02 10:12:59;;;;;;;10.45;7.60;;;;;;;5.00;80.12;96295.05;1691667;84;21148;-81
2021/01/02 10:15:26;;;;;;;11.75;7.87;;;;;;;5.04;79.72;96292.50;1691003;83;21148;-81
2021/01/02 10:17:52;;;;;;;19.20;12.63;;;;;;;5.09;77.98;96283.88;1694623;84;21122;-81
2021/01/02 10:20:19;;;;;;;16.65;10.53;;;;;;;5.21;78.06;96280.10;1684492;83;21156;-81
2021/01/02 10:22:45;;;;;;;15.80;11.63;;;;;;;5.30;78.99;96284.33;1682726;84;21129;-81
2021/01/02 10:25:12;;;;;;;29.00;14.80;;;;;;;5.35;78.81;96283.87;1689224;83;21146;-81
2021/01/02 10:27:38;;;;;;;16.23;9.80;;;;;;;5.47;78.07;96280.09;1692967;84;21508;-81
2021/01/02 10:30:08;;;;;;;12.40;8.95;;;;;;;5.56;77.82;96291.27;1688688;84;21395;-82
2021/01/02 10:32:34;;;;;;;10.82;5.87;;;;;;;5.65;78.26;96278.73;1673125;84;21136;-81
2021/01/02 10:35:00;;;;;;;59.18;25.00;;;;;;;5.75;76.90;96279.92;1691756;84;21147;-81
2021/01/02 10:37:28;;;;;;;23.07;13.75;;;;;;;5.91;76.93;96278.73;1696372;83;21268;-81
2021/01/02 10:39:54;;;;;;;4.78;3.67;;;;;;;6.06;75.42;96274.61;1692774;84;21380;-82
2021/01/02 10:42:25;;;;;;;79.97;29.00;;;;;;;6.21;75.31;96263.20;1688826;83;21176;-81
2021/01/02 10:44:51;;;;;;;17.30;7.65;;;;;;;6.29;74.73;96260.14;1689417;84;21152;-82
2021/01/02 10:47:20;;;;;;;5.78;3.98;;;;;;;6.34;74.49;96262.24;1683488;84;21136;-81
2021/01/02 10:49:47;;;;;;;5.25;3.58;;;;;;;6.36;73.20;96262.92;1669814;84;21147;-82
2021/01/02 10:52:19;;;;;;;3.33;2.67;;;;;;;6.39;73.74;96252.27;1692629;83;21134;-81
2021/01/02 10:54:47;;;;;;;3.60;2.98;;;;;;;6.40;74.07;96256.47;1673625;84;21127;-82
2021/01/02 10:57:15;;;;;;;5.10;3.72;;;;;;;6.43;73.52;96246.30;1650748;84;21120;-82
2021/01/02 10:59:46;;;;;;;4.83;3.17;;;;;;;6.48;73.83;96253.08;1655411;85;21152;-82
2021/01/02 11:02:13;;;;;;;4.53;3.20;;;;;;;6.51;73.62;96247.14;1660066;86;21393;-81
2021/01/02 11:04:39;;;;;;;6.40;4.28;;;;;;;6.63;73.52;96242.45;1665090;85;21148;-82
2021/01/02 11:07:05;;;;;;;3.47;2.95;;;;;;;6.75;72.58;96234.72;1659945;85;21140;-81
2021/01/02 11:09:32;;;;;;;6.00;3.87;;;;;;;6.85;72.46;96231.98;1664266;86;21132;-81
2021/01/02 11:11:58;;;;;;;4.60;3.42;;;;;;;6.93;71.89;96228.90;1661366;86;21167;-81
2021/01/02 11:14:25;;;;;;;4.70;3.60;;;;;;;7.00;71.55;96230.36;1659416;86;21346;-81
2021/01/02 11:16:51;;;;;;;9.85;4.90;;;;;;;7.08;71.72;96225.17;1667001;86;21130;-81
2021/01/02 11:19:22;;;;;;;5.80;3.80;;;;;;;7.15;71.54;96220.14;1635418;87;21154;-81
2021/01/02 11:21:51;;;;;;;29.25;11.08;;;;;;;7.18;70.34;96215.97;1657114;85;21181;-81
2021/01/02 11:24:22;;;;;;;20.40;7.47;;;;;;;7.22;71.04;96220.63;1656724;85;21136;-81
2021/01/02 11:26:50;;;;;;;13.03;5.83;;;;;;;7.21;70.81;96219.02;1657371;85;21125;-81
2021/01/02 11:29:18;;;;;;;7.60;4.15;;;;;;;7.23;70.91;96217.08;1646820;85;21462;-80
2021/01/02 11:31:44;;;;;;;4.72;3.72;;;;;;;7.27;69.62;96205.92;1657276;85;21407;-81
2021/01/02 11:34:10;;;;;;;11.55;6.85;;;;;;;7.33;70.05;96210.45;1661648;85;21156;-81
2021/01/02 11:36:37;;;;;;;9.58;5.92;;;;;;;7.35;70.80;96208.98;1657130;85;21169;-81
2021/01/02 11:39:04;;;;;;;7.15;5.58;;;;;;;7.33;69.56;96217.39;1666934;85;21468;-80
2021/01/02 11:41:37;;;;;;;9.03;6.85;;;;;;;7.34;69.11;96208.18;1667385;86;21116;-81
2021/01/02 11:44:06;;;;;;;4.83;3.65;;;;;;;7.35;69.40;96217.55;1665539;86;21286;-82
2021/01/02 11:46:41;;;;;;;3.98;3.27;;;;;;;7.36;68.80;96209.30;1667379;86;21139;-81
2021/01/02 11:49:09;;;;;;;3.72;2.67;;;;;;;7.37;69.50;96207.03;1665239;85;21104;-81
2021/01/02 11:51:35;;;;;;;3.35;2.47;;;;;;;7.36;68.95;96204.13;1653895;86;21173;-81
2021/01/02 11:54:01;;;;;;;136.43;46.35;;;;;;;7.37;68.02;96207.84;1652630;86;21140;-80
2021/01/02 11:56:27;;;;;;;23.18;9.95;;;;;;;7.39;69.56;96203.80;1653746;85;21124;-80
2021/01/02 11:58:56;;;;;;;8.38;3.62;;;;;;;7.38;68.67;96206.06;1678356;84;21166;-81
2021/01/02 12:01:23;;;;;;;7.60;4.58;;;;;;;7.40;68.19;96191.19;1678758;84;21239;-81
2021/01/02 12:03:49;;;;;;;5.22;3.37;;;;;;;7.40;68.69;96189.90;1671076;86;21267;-81
2021/01/02 12:06:15;;;;;;;9.18;4.17;;;;;;;7.41;68.18;96192.80;1658568;85;21338;-81